Time;durP1;ratioP1;P1;durP2;ratioP2;P2;SDS_P1;SDS_P2;PMS_P1;PMS_P2;Temp;Humidity;BMP_temperature;BMP_pressure;BME280_temperature;BME280_humidity;BME280_pressure;Samples;Min_cycle;Max_cycle;Signal;HPM_P1;HPM_P2
2022/06/17 00:00:39;;;;;;;;;;;;;;;25.79;57.51;99955.03;2075120;28;19912;-66
2022/06/17 00:01:40;;;;;;;;;;;;;;;25.78;57.52;99947.81;2076620;28;19932;-65
2022/06/17 00:02:40;;;;;;;;;;;;;;;25.79;57.56;99944.00;2071661;28;20645;-65
2022/06/17 00:03:40;;;;;;;;;;;;;;;25.78;57.57;99950.59;2075397;28;20326;-65
2022/06/17 00:04:41;;;;;;;;;;;;;;;25.78;57.26;99947.81;2074151;28;19976;-65
2022/06/17 00:05:41;;;;;;;;;;;;;;;25.77;57.57;99946.09;2075103;28;19920;-65
2022/06/17 00:06:43;;;;;;;;;;;;;;;25.78;57.32;99947.81;2075372;28;20275;-65
2022/06/17 00:07:44;;;;;;;;;;;;;;;25.77;57.37;99952.50;2067223;28;19944;-65
2022/06/17 00:08:46;;;;;;;;;;;;;;;25.78;57.29;99954.19;2067842;28;19913;-65
2022/06/17 00:09:46;;;;;;;;;;;;;;;25.77;57.60;99958.03;2075984;28;19917;-65
2022/06/17 00:10:47;;;;;;;;;;;;;;;25.78;57.49;99954.19;2074405;28;19959;-65
2022/06/17 00:11:47;;;;;;;;;;;;;;;25.78;57.57;99950.59;2075604;28;19916;-65
2022/06/17 00:12:48;;;;;;;;;;;;;;;25.77;57.55;99958.03;2075204;28;19923;-65
2022/06/17 00:13:48;;;;;;;;;;;;;;;25.78;57.56;99958.88;2075764;28;19923;-66
2022/06/17 00:16:09;;;;;;;;;;;;;;;25.78;57.60;99958.88;2073303;28;19917;-65
2022/06/17 00:17:10;;;;;;;;;;;;;;;25.79;57.55;99955.03;2072545;28;20375;-66
2022/06/17 00:18:10;;;;;;;;;;;;;;;25.78;57.56;99964.38;2078746;28;20589;-67
2022/06/17 00:19:11;;;;;;;;;;;;;;;25.79;57.45;99955.03;2078373;28;20367;-66
2022/06/17 00:20:16;;;;;;;;;;;;;;;25.78;57.52;99964.38;2077170;28;19920;-67
2022/06/17 00:21:22;;;;;;;;;;;;;;;25.78;57.54;99958.88;2076482;28;20280;-66
2022/06/17 00:22:24;;;;;;;;;;;;;;;25.78;57.56;99959.72;2079370;28;19917;-66
2022/06/17 00:23:25;;;;;;;;;;;;;;;25.77;57.27;99958.03;2077069;28;20007;-66
2022/06/17 00:24:27;;;;;;;;;;;;;;;25.77;57.61;99968.19;2078630;28;20402;-66
2022/06/17 00:25:29;;;;;;;;;;;;;;;25.77;57.53;99957.13;2077573;28;19916;-66
2022/06/17 00:26:30;;;;;;;;;;;;;;;25.79;57.32;99968.84;2077229;28;19913;-66
2022/06/17 00:27:30;;;;;;;;;;;;;;;25.77;57.40;99969.06;2078128;28;19934;-66
2022/06/17 00:28:30;;;;;;;;;;;;;;;25.78;57.64;99964.38;2072586;28;19921;-66
2022/06/17 00:29:31;;;;;;;;;;;;;;;25.77;57.64;99952.50;2078293;28;19959;-66
2022/06/17 00:30:32;;;;;;;;;;;;;;;25.77;57.65;99957.13;2077320;28;19921;-66
2022/06/17 00:31:32;;;;;;;;;;;;;;;25.77;57.57;99958.03;2078018;28;20284;-66
2022/06/17 00:32:33;;;;;;;;;;;;;;;25.76;57.57;99961.81;2078022;28;20094;-66
2022/06/17 00:33:33;;;;;;;;;;;;;;;25.78;57.36;99969.91;2074238;28;20284;-65
2022/06/17 00:34:33;;;;;;;;;;;;;;;25.77;57.56;99973.69;2076460;28;19921;-66
2022/06/17 00:35:35;;;;;;;;;;;;;;;25.76;57.38;99961.81;2074450;28;19916;-65
2022/06/17 00:36:36;;;;;;;;;;;;;;;25.76;57.48;99972.84;2076397;28;20349;-65
2022/06/17 00:37:36;;;;;;;;;;;;;;;25.76;57.56;99966.47;2074132;28;19917;-65
2022/06/17 00:38:37;;;;;;;;;;;;;;;25.76;57.62;99972.00;2073517;28;20106;-65
2022/06/17 00:39:38;;;;;;;;;;;;;;;25.76;57.65;99966.47;2076410;28;20442;-65
2022/06/17 00:40:39;;;;;;;;;;;;;;;25.76;57.41;99972.84;2075000;28;20390;-65
2022/06/17 00:41:41;;;;;;;;;;;;;;;25.76;57.57;99972.00;2075111;28;19917;-66
2022/06/17 00:42:42;;;;;;;;;;;;;;;25.77;57.61;99979.22;2075662;28;20470;-65
2022/06/17 00:43:44;;;;;;;;;;;;;;;25.77;57.38;99973.69;2074887;28;19923;-65
2022/06/17 00:45:02;;;;;;;;;;;;;;;25.77;57.42;99968.19;2076089;28;20015;-65
2022/06/17 00:46:05;;;;;;;;;;;;;;;25.77;57.55;99968.19;2068346;28;19976;-65
2022/06/17 00:47:14;;;;;;;;;;;;;;;25.76;57.25;99972.84;2065243;28;19925;-65
2022/06/17 00:48:20;;;;;;;;;;;;;;;25.77;57.61;99968.19;2074972;28;19916;-65
2022/06/17 00:49:26;;;;;;;;;;;;;;;25.76;57.38;99972.00;2076664;28;20019;-65
2022/06/17 00:50:41;;;;;;;;;;;;;;;25.78;57.42;99983.72;2072595;28;19918;-65
2022/06/17 00:51:45;;;;;;;;;;;;;;;25.77;57.30;99973.69;2074282;28;19912;-65
2022/06/17 00:52:49;;;;;;;;;;;;;;;25.77;57.34;99979.22;2076211;28;19995;-65
2022/06/17 00:53:51;;;;;;;;;;;;;;;25.77;57.38;99976.47;2072896;28;19955;-65
2022/06/17 00:54:55;;;;;;;;;;;;;;;25.77;57.26;99974.59;2076106;28;20452;-66
2022/06/17 00:56:14;;;;;;;;;;;;;;;25.76;57.60;99972.84;2075122;28;19916;-65
2022/06/17 00:57:20;;;;;;;;;;;;;;;25.77;57.58;99982.00;2075506;28;19916;-65
2022/06/17 00:58:23;;;;;;;;;;;;;;;25.77;57.29;99984.75;2073304;28;20370;-65
2022/06/17 00:59:24;;;;;;;;;;;;;;;25.77;57.48;99979.22;2074558;28;19924;-65
2022/06/17 01:00:25;;;;;;;;;;;;;;;25.77;57.35;99976.47;2075563;28;19962;-65
2022/06/17 01:01:27;;;;;;;;;;;;;;;25.76;57.43;99974.75;2073592;28;19927;-65
2022/06/17 01:02:29;;;;;;;;;;;;;;;25.76;57.58;99972.84;2076507;28;19917;-64
2022/06/17 01:03:34;;;;;;;;;;;;;;;25.76;57.57;99972.84;2066180;28;20846;-63
2022/06/17 01:04:38;;;;;;;;;;;;;;;25.76;57.25;99977.53;2067040;28;19918;-63
2022/06/17 01:05:44;;;;;;;;;;;;;;;25.76;57.36;99977.53;2075269;28;19912;-64
2022/06/17 01:06:47;;;;;;;;;;;;;;;25.76;57.56;99974.75;2074375;28;19916;-64
2022/06/17 01:08:14;;;;;;;;;;;;;;;25.75;57.30;99981.31;2071393;28;19963;-64
2022/06/17 01:10:47;;;;;;;;;;;;;;;25.76;57.25;99994.09;2075950;28;20736;-63
2022/06/17 01:11:47;;;;;;;;;;;;;;;25.75;57.29;99986.84;2072942;28;20286;-64
2022/06/17 01:13:02;;;;;;;;;;;;;;;25.76;57.18;99983.06;2076142;28;20003;-63
2022/06/17 01:14:05;;;;;;;;;;;;;;;25.75;57.47;99987.72;2075027;28;19944;-64
2022/06/17 01:15:06;;;;;;;;;;;;;;;25.77;57.49;99987.50;2074254;28;19916;-64
2022/06/17 01:16:07;;;;;;;;;;;;;;;25.76;57.50;99983.06;2075568;28;20000;-64
2022/06/17 01:17:09;;;;;;;;;;;;;;;25.75;57.56;99981.31;2073750;28;19970;-64
2022/06/17 01:18:11;;;;;;;;;;;;;;;25.76;57.20;99985.81;2070849;28;19935;-64
2022/06/17 01:19:21;;;;;;;;;;;;;;;25.75;57.29;99981.31;2072810;28;19913;-64
2022/06/17 01:20:22;;;;;;;;;;;;;;;25.76;57.54;99977.53;2074926;28;19917;-64
2022/06/17 01:21:46;;;;;;;;;;;;;;;25.75;57.29;99976.69;2073647;28;20601;-63
2022/06/17 01:22:48;;;;;;;;;;;;;;;25.76;57.28;99977.53;2069267;28;19979;-63
2022/06/17 01:23:48;;;;;;;;;;;;;;;25.75;57.34;99982.19;2075078;28;20403;-63
2022/06/17 01:24:49;;;;;;;;;;;;;;;25.76;57.38;99974.75;2074948;28;20306;-64
2022/06/17 01:25:50;;;;;;;;;;;;;;;25.76;57.40;99977.53;2069227;28;20398;-64
2022/06/17 01:26:50;;;;;;;;;;;;;;;25.75;57.57;99982.19;2070660;28;19947;-63
2022/06/17 01:27:52;;;;;;;;;;;;;;;25.75;57.63;99981.31;2072910;28;20077;-65
2022/06/17 01:28:53;;;;;;;;;;;;;;;25.76;57.44;99983.06;2073774;28;19917;-63
2022/06/17 01:29:53;;;;;;;;;;;;;;;25.76;57.65;99994.09;2070194;28;20012;-63
2022/06/17 01:30:58;;;;;;;;;;;;;;;25.75;57.65;99993.25;2075741;28;19917;-64
2022/06/17 01:31:58;;;;;;;;;;;;;;;25.76;57.54;99988.56;2075149;28;19963;-64
2022/06/17 01:32:58;;;;;;;;;;;;;;;25.75;57.35;99986.84;2076135;28;19975;-64
2022/06/17 01:33:59;;;;;;;;;;;;;;;25.75;57.57;99992.38;2074059;28;19908;-64
2022/06/17 01:35:00;;;;;;;;;;;;;;;25.76;57.59;99991.34;2074297;28;19909;-64
2022/06/17 01:36:14;;;;;;;;;;;;;;;25.75;57.48;99995.13;2075743;28;19956;-64
2022/06/17 01:37:14;;;;;;;;;;;;;;;25.75;57.66;99992.38;2065091;28;20043;-64
2022/06/17 01:38:14;;;;;;;;;;;;;;;25.75;57.37;99992.38;2066599;28;19916;-63
2022/06/17 01:39:16;;;;;;;;;;;;;;;25.75;57.58;99989.59;2074418;28;19940;-63
2022/06/17 01:40:17;;;;;;;;;;;;;;;25.74;57.38;99985.16;2074671;28;19932;-63
2022/06/17 01:41:19;;;;;;;;;;;;;;;25.75;57.58;99992.38;2075317;28;20036;-63
2022/06/17 01:42:19;;;;;;;;;;;;;;;25.74;57.29;99982.38;2072372;28;20631;-64
2022/06/17 01:43:22;;;;;;;;;;;;;;;25.75;57.55;99986.84;2074411;28;20709;-63
2022/06/17 01:44:25;;;;;;;;;;;;;;;25.74;57.50;99985.16;2075339;28;19917;-63
2022/06/17 01:45:25;;;;;;;;;;;;;;;25.73;57.36;99983.44;2073034;28;19928;-64
2022/06/17 01:46:28;;;;;;;;;;;;;;;25.73;57.66;99988.97;2075764;28;19916;-64
2022/06/17 01:47:29;;;;;;;;;;;;;;;25.74;57.67;99985.16;2069161;28;19940;-63
2022/06/17 01:48:32;;;;;;;;;;;;;;;25.73;57.36;99984.31;2073234;28;19932;-64
2022/06/17 01:49:35;;;;;;;;;;;;;;;25.74;57.66;99986.00;2075551;28;19991;-64
2022/06/17 01:50:36;;;;;;;;;;;;;;;25.74;57.49;99985.16;2073944;28;20298;-63
2022/06/17 01:51:40;;;;;;;;;;;;;;;25.74;57.66;99985.16;2074697;28;20297;-63
2022/06/17 01:52:45;;;;;;;;;;;;;;;25.74;57.70;99990.66;2075724;28;19918;-63
2022/06/17 01:53:48;;;;;;;;;;;;;;;25.73;57.50;99984.31;2071661;28;19952;-63
2022/06/17 01:54:52;;;;;;;;;;;;;;;25.74;57.62;99985.16;2074707;28;19916;-64
2022/06/17 01:55:57;;;;;;;;;;;;;;;25.74;57.42;99985.16;2073137;28;19917;-65
2022/06/17 01:56:59;;;;;;;;;;;;;;;25.75;57.58;99989.59;2072915;28;19917;-64
2022/06/17 01:58:21;;;;;;;;;;;;;;;25.74;57.66;99986.00;2074362;28;20043;-64
2022/06/17 01:59:26;;;;;;;;;;;;;;;25.74;57.65;99987.91;2074404;28;20032;-64
2022/06/17 02:00:27;;;;;;;;;;;;;;;25.73;57.69;99980.69;2074829;28;20024;-64
2022/06/17 02:01:29;;;;;;;;;;;;;;;25.73;57.51;99981.53;2074919;28;19912;-64
2022/06/17 02:02:30;;;;;;;;;;;;;;;25.73;57.64;99980.69;2076015;28;19919;-64
2022/06/17 02:03:33;;;;;;;;;;;;;;;25.73;57.61;99973.25;2073726;28;19917;-64
2022/06/17 02:04:36;;;;;;;;;;;;;;;25.74;57.64;99974.09;2074303;28;20033;-63
2022/06/17 02:05:38;;;;;;;;;;;;;;;25.73;57.69;99975.16;2070544;28;19990;-63
2022/06/17 02:06:38;;;;;;;;;;;;;;;25.73;57.54;99972.41;2074614;28;19963;-64
2022/06/17 02:07:55;;;;;;;;;;;;;;;25.73;57.39;99967.72;2075555;28;20391;-64
2022/06/17 02:08:56;;;;;;;;;;;;;;;25.72;57.62;99967.91;2076234;28;19924;-64
2022/06/17 02:09:57;;;;;;;;;;;;;;;25.73;57.69;99970.50;2075743;28;19920;-63
2022/06/17 02:10:57;;;;;;;;;;;;;;;25.73;57.41;99966.88;2076409;28;19959;-63
2022/06/17 02:11:59;;;;;;;;;;;;;;;25.74;57.56;99965.81;2076454;28;19924;-64
2022/06/17 02:13:01;;;;;;;;;;;;;;;25.74;57.68;99965.81;2077186;28;19912;-63
2022/06/17 02:14:06;;;;;;;;;;;;;;;25.73;57.52;99964.13;2063148;28;19941;-63
2022/06/17 02:15:08;;;;;;;;;;;;;;;25.72;57.52;99966.00;2068739;28;20002;-63
2022/06/17 02:16:08;;;;;;;;;;;;;;;25.73;57.79;99972.41;2077201;28;20597;-64
2022/06/17 02:17:09;;;;;;;;;;;;;;;25.72;57.53;99966.00;2073191;28;20349;-64
2022/06/17 02:18:11;;;;;;;;;;;;;;;25.72;57.63;99974.28;2073632;28;20165;-63
2022/06/17 02:19:12;;;;;;;;;;;;;;;25.73;57.56;99966.88;2074384;28;20727;-64
2022/06/17 02:20:14;;;;;;;;;;;;;;;25.72;57.85;99965.16;2074219;28;20405;-63
2022/06/17 02:21:18;;;;;;;;;;;;;;;25.72;57.61;99973.44;2076773;28;20361;-63
2022/06/17 02:22:23;;;;;;;;;;;;;;;25.73;57.63;99975.16;2073726;28;20387;-64
2022/06/17 02:23:26;;;;;;;;;;;;;;;25.72;57.85;99970.69;2073795;28;19925;-63
2022/06/17 02:24:26;;;;;;;;;;;;;;;25.73;57.58;99975.16;2076450;28;19917;-64
2022/06/17 02:25:29;;;;;;;;;;;;;;;25.72;57.82;99976.19;2077401;28;20284;-63
2022/06/17 02:26:32;;;;;;;;;;;;;;;25.72;57.95;99974.28;2074180;28;19927;-63
2022/06/17 02:27:34;;;;;;;;;;;;;;;25.73;57.80;99972.41;2076595;28;20407;-63
2022/06/17 02:28:35;;;;;;;;;;;;;;;25.72;57.80;99976.19;2075483;28;20405;-63
2022/06/17 02:29:36;;;;;;;;;;;;;;;25.72;57.52;99976.19;2074053;28;19970;-64
2022/06/17 02:30:38;;;;;;;;;;;;;;;25.72;57.78;99974.28;2074842;28;20555;-64
2022/06/17 02:31:42;;;;;;;;;;;;;;;25.72;57.74;99968.75;2075527;28;20591;-63
2022/06/17 02:32:43;;;;;;;;;;;;;;;25.72;57.72;99971.53;2074586;28;20017;-64
2022/06/17 02:33:49;;;;;;;;;;;;;;;25.72;57.87;99973.44;2074167;28;20686;-64
2022/06/17 02:35:01;;;;;;;;;;;;;;;25.71;57.65;99968.97;2075581;28;19969;-64
2022/06/17 02:36:05;;;;;;;;;;;;;;;25.72;57.61;99970.69;2068624;28;19917;-64
2022/06/17 02:37:13;;;;;;;;;;;;;;;25.72;57.52;99970.69;2077736;28;20374;-64
2022/06/17 02:38:15;;;;;;;;;;;;;;;25.72;57.58;99970.69;2075318;28;19959;-63
2022/06/17 02:39:15;;;;;;;;;;;;;;;25.72;57.62;99981.72;2070313;28;20443;-63
2022/06/17 02:40:24;;;;;;;;;;;;;;;25.72;57.54;99976.19;2075287;28;20357;-63
2022/06/17 02:41:25;;;;;;;;;;;;;;;25.71;57.73;99980.88;2075344;28;20019;-64
2022/06/17 02:42:31;;;;;;;;;;;;;;;25.71;57.59;99977.25;2077586;28;19917;-64
2022/06/17 02:43:40;;;;;;;;;;;;;;;25.71;57.59;99980.03;2067358;28;20040;-63
2022/06/17 02:44:41;;;;;;;;;;;;;;;25.71;57.70;99985.53;2068271;28;19924;-64
2022/06/17 02:45:43;;;;;;;;;;;;;;;25.71;57.59;99980.03;2075451;28;20795;-63
2022/06/17 02:46:44;;;;;;;;;;;;;;;25.71;57.78;99978.13;2075307;28;19916;-64
2022/06/17 02:47:44;;;;;;;;;;;;;;;25.71;57.85;99980.03;2075036;28;19927;-64
2022/06/17 02:48:48;;;;;;;;;;;;;;;25.71;57.89;99985.53;2073231;28;19916;-63
2022/06/17 02:49:48;;;;;;;;;;;;;;;25.71;57.58;99986.41;2077538;28;20012;-63
2022/06/17 02:50:51;;;;;;;;;;;;;;;25.71;57.81;99983.63;2076157;28;19917;-64
2022/06/17 02:51:51;;;;;;;;;;;;;;;25.71;57.54;99980.88;2075626;28;20705;-63
2022/06/17 02:52:52;;;;;;;;;;;;;;;25.72;57.75;99981.72;2073356;28;20665;-63
2022/06/17 02:53:53;;;;;;;;;;;;;;;25.71;57.65;99980.03;2074382;28;19917;-63
2022/06/17 02:54:56;;;;;;;;;;;;;;;25.71;57.58;99974.50;2076095;28;19913;-64
2022/06/17 02:55:57;;;;;;;;;;;;;;;25.71;57.61;99980.88;2075828;28;20460;-64
2022/06/17 02:56:59;;;;;;;;;;;;;;;25.71;57.95;99980.03;2076713;28;19913;-63
2022/06/17 02:58:07;;;;;;;;;;;;;;;25.71;57.91;99985.53;2076180;28;20007;-64
2022/06/17 02:59:16;;;;;;;;;;;;;;;25.71;57.65;99985.53;2077511;28;20404;-63
2022/06/17 03:00:20;;;;;;;;;;;;;;;25.70;57.90;99984.69;2073690;28;19986;-64
2022/06/17 03:01:23;;;;;;;;;;;;;;;25.71;57.87;99985.53;2073759;28;19959;-63
2022/06/17 03:02:32;;;;;;;;;;;;;;;25.72;57.88;99987.25;2074405;28;19989;-63
2022/06/17 03:03:34;;;;;;;;;;;;;;;25.70;57.67;99978.28;2075923;28;19912;-64
2022/06/17 03:04:34;;;;;;;;;;;;;;;25.70;57.91;99983.81;2078475;28;20401;-64
2022/06/17 03:05:36;;;;;;;;;;;;;;;25.70;57.89;99984.69;2075567;28;20306;-63
2022/06/17 03:06:38;;;;;;;;;;;;;;;25.70;57.70;99984.69;2075715;28;20727;-63
2022/06/17 03:07:39;;;;;;;;;;;;;;;25.70;57.73;99983.81;2076310;28;19920;-64
2022/06/17 03:08:40;;;;;;;;;;;;;;;25.71;57.97;99985.53;2074822;28;20759;-63
2022/06/17 03:09:40;;;;;;;;;;;;;;;25.70;57.71;99979.19;2077367;28;21070;-64
2022/06/17 03:10:41;;;;;;;;;;;;;;;25.70;58.01;99984.69;2075534;28;19920;-64
2022/06/17 03:11:43;;;;;;;;;;;;;;;25.71;57.74;99985.53;2076311;28;20119;-64
2022/06/17 03:12:47;;;;;;;;;;;;;;;25.71;57.99;99988.31;2075690;28;19917;-64
2022/06/17 03:13:50;;;;;;;;;;;;;;;25.70;57.99;99983.81;2075003;28;19916;-64
2022/06/17 03:15:06;;;;;;;;;;;;;;;25.70;57.94;100000.38;2076686;28;20610;-64
2022/06/17 03:16:09;;;;;;;;;;;;;;;25.70;57.91;100000.38;2075187;28;19999;-64
2022/06/17 03:17:11;;;;;;;;;;;;;;;25.69;57.70;100002.28;2075661;28;20794;-64
2022/06/17 03:18:12;;;;;;;;;;;;;;;25.70;57.94;99994.88;2076465;28;19924;-63
2022/06/17 03:19:13;;;;;;;;;;;;;;;25.69;57.89;99999.53;2072010;28;20008;-64
2022/06/17 03:20:23;;;;;;;;;;;;;;;25.68;57.93;100000.59;2075890;28;19916;-64
2022/06/17 03:21:24;;;;;;;;;;;;;;;25.69;57.93;100001.44;2075862;28;19923;-63
2022/06/17 03:22:25;;;;;;;;;;;;;;;25.69;57.85;100001.44;2074656;28;20516;-64
2022/06/17 03:23:25;;;;;;;;;;;;;;;25.69;57.98;100006.97;2076898;28;20077;-63
2022/06/17 03:24:30;;;;;;;;;;;;;;;25.69;58.08;100009.72;2073657;28;20547;-64
2022/06/17 03:25:34;;;;;;;;;;;;;;;25.69;57.93;100006.97;2076230;28;19940;-64
2022/06/17 03:26:38;;;;;;;;;;;;;;;25.70;57.76;100005.91;2072314;28;19978;-64
2022/06/17 03:27:38;;;;;;;;;;;;;;;25.70;57.74;100011.44;2075641;28;19925;-64
2022/06/17 03:28:41;;;;;;;;;;;;;;;25.68;57.79;100003.34;2074456;28;19917;-64
2022/06/17 03:29:43;;;;;;;;;;;;;;;25.69;57.79;100009.72;2074672;28;19916;-63
2022/06/17 03:30:45;;;;;;;;;;;;;;;25.67;58.06;100005.28;2070813;28;19917;-66
2022/06/17 03:31:56;;;;;;;;;;;;;;;25.68;57.84;100014.41;2075203;28;19986;-67
2022/06/17 03:33:04;;;;;;;;;;;;;;;25.69;58.10;100020.78;2073890;28;19964;-66
2022/06/17 03:34:09;;;;;;;;;;;;;;;25.69;57.79;100018.00;2077374;28;19924;-66
2022/06/17 03:35:19;;;;;;;;;;;;;;;25.69;57.75;100020.78;2073348;28;19927;-66
2022/06/17 03:36:49;;;;;;;;;;;;;;;25.67;57.94;100013.56;2075190;28;19959;-66
2022/06/17 03:38:00;;;;;;;;;;;;;;;25.67;57.80;100008.03;2062122;28;19921;-66
2022/06/17 03:39:03;;;;;;;;;;;;;;;25.68;57.70;100003.34;2071095;28;19971;-66
2022/06/17 03:40:06;;;;;;;;;;;;;;;25.69;57.93;100015.25;2069603;28;19920;-66
2022/06/17 03:41:10;;;;;;;;;;;;;;;25.69;57.78;100009.72;2076166;28;19913;-66
2022/06/17 03:42:18;;;;;;;;;;;;;;;25.69;58.02;100015.25;2078524;28;19942;-66
2022/06/17 03:43:21;;;;;;;;;;;;;;;25.67;58.03;100013.56;2077073;28;20294;-66
2022/06/17 03:44:24;;;;;;;;;;;;;;;25.68;57.80;100022.69;2078437;28;19909;-66
2022/06/17 03:45:35;;;;;;;;;;;;;;;25.69;57.95;100023.53;2072713;28;19968;-66
2022/06/17 03:46:44;;;;;;;;;;;;;;;25.67;58.02;100013.56;2075287;28;20398;-66
2022/06/17 03:47:58;;;;;;;;;;;;;;;25.66;57.97;100020.09;2078239;28;19920;-66
2022/06/17 03:49:01;;;;;;;;;;;;;;;25.67;57.76;100019.06;2078521;28;20173;-66
2022/06/17 03:50:05;;;;;;;;;;;;;;;25.69;57.75;100026.28;2078646;28;20621;-66
2022/06/17 03:51:10;;;;;;;;;;;;;;;25.67;57.83;100027.34;2077313;28;20461;-66
2022/06/17 03:52:36;;;;;;;;;;;;;;;25.67;58.03;100030.13;2079400;28;19991;-66
2022/06/17 03:53:37;;;;;;;;;;;;;;;25.66;57.64;100033.91;2072828;28;20290;-66
2022/06/17 03:54:37;;;;;;;;;;;;;;;25.66;57.79;100030.28;2077617;28;19959;-66
2022/06/17 03:55:38;;;;;;;;;;;;;;;25.66;57.85;100028.38;2077886;28;20070;-66
2022/06/17 03:56:40;;;;;;;;;;;;;;;25.67;58.01;100035.63;2078499;28;20421;-66
2022/06/17 03:57:42;;;;;;;;;;;;;;;25.67;58.01;100032.88;2078516;28;19964;-66
2022/06/17 03:58:43;;;;;;;;;;;;;;;25.66;58.08;100039.44;2079078;28;20379;-66
2022/06/17 03:59:47;;;;;;;;;;;;;;;25.65;58.02;100043.25;2074725;28;20287;-66
2022/06/17 04:00:53;;;;;;;;;;;;;;;25.66;57.66;100044.09;2077278;28;19916;-66
2022/06/17 04:01:56;;;;;;;;;;;;;;;25.66;57.87;100047.72;2076320;28;19927;-66
2022/06/17 04:02:59;;;;;;;;;;;;;;;25.66;58.03;100050.47;2074726;28;19923;-66
2022/06/17 04:04:03;;;;;;;;;;;;;;;25.66;57.79;100050.47;2077777;28;20462;-66
2022/06/17 04:05:04;;;;;;;;;;;;;;;25.65;57.85;100054.28;2078414;28;19931;-66
2022/06/17 04:06:08;;;;;;;;;;;;;;;25.67;58.01;100063.25;2076657;28;20731;-66
2022/06/17 04:07:10;;;;;;;;;;;;;;;25.67;57.96;100062.34;2078126;28;20039;-66
2022/06/17 04:08:11;;;;;;;;;;;;;;;25.67;57.76;100062.34;2074633;28;20046;-66
2022/06/17 04:09:17;;;;;;;;;;;;;;;25.66;57.74;100064.28;2076914;28;19916;-66
2022/06/17 04:10:18;;;;;;;;;;;;;;;25.67;57.94;100063.25;2078720;28;19970;-66
2022/06/17 04:11:20;;;;;;;;;;;;;;;25.66;57.74;100061.50;2075160;28;19912;-66
2022/06/17 04:12:24;;;;;;;;;;;;;;;25.66;57.95;100061.50;2078975;28;20030;-66
2022/06/17 04:13:28;;;;;;;;;;;;;;;25.66;57.94;100061.50;2076878;28;20403;-66
2022/06/17 04:14:30;;;;;;;;;;;;;;;25.66;57.79;100066.19;2077915;28;19920;-66
2022/06/17 04:15:30;;;;;;;;;;;;;;;25.66;57.81;100061.50;2078082;28;19970;-66
2022/06/17 04:17:06;;;;;;;;;;;;;;;25.65;57.96;100059.81;2074736;28;19968;-66
2022/06/17 04:18:07;;;;;;;;;;;;;;;25.65;57.95;100054.28;2056532;28;20355;-66
2022/06/17 04:19:13;;;;;;;;;;;;;;;25.65;57.73;100058.97;2053326;28;19917;-66
2022/06/17 04:20:16;;;;;;;;;;;;;;;25.66;57.88;100063.44;2058381;28;19914;-66
2022/06/17 04:21:16;;;;;;;;;;;;;;;25.65;58.03;100057.06;2077162;28;20394;-66
2022/06/17 04:22:20;;;;;;;;;;;;;;;25.65;57.74;100058.97;2074961;28;20323;-66
2022/06/17 04:23:28;;;;;;;;;;;;;;;25.65;57.74;100059.81;2078471;28;19923;-66
2022/06/17 04:24:29;;;;;;;;;;;;;;;25.65;57.93;100059.81;2074084;28;19963;-66
2022/06/17 04:25:34;;;;;;;;;;;;;;;25.65;57.92;100062.56;2079113;28;20007;-66
2022/06/17 04:26:36;;;;;;;;;;;;;;;25.65;57.77;100067.25;2077091;28;19916;-66
2022/06/17 04:28:58;;;;;;;;;;;;;;;25.65;57.67;100070.00;2078561;28;19913;-66
2022/06/17 04:29:59;;;;;;;;;;;;;;;25.65;57.59;100061.72;2077850;28;19931;-65
2022/06/17 04:31:01;;;;;;;;;;;;;;;25.64;57.93;100063.59;2079057;28;19955;-66
2022/06/17 04:32:11;;;;;;;;;;;;;;;25.65;57.73;100064.50;2078249;28;20574;-66
2022/06/17 04:33:31;;;;;;;;;;;;;;;25.65;57.64;100070.84;2076525;28;19920;-66
2022/06/17 04:34:31;;;;;;;;;;;;;;;25.64;57.65;100060.84;2077662;28;20077;-66
2022/06/17 04:35:33;;;;;;;;;;;;;;;25.63;57.66;100061.91;2078329;28;20285;-66
2022/06/17 04:36:35;;;;;;;;;;;;;;;25.64;57.59;100069.13;2077090;28;19917;-66
2022/06/17 04:37:37;;;;;;;;;;;;;;;25.65;57.99;100070.00;2069634;28;19956;-66
2022/06/17 04:39:06;;;;;;;;;;;;;;;25.64;57.64;100074.66;2071386;28;19960;-66
2022/06/17 04:40:16;;;;;;;;;;;;;;;25.65;57.88;100072.78;2061081;28;20360;-66
2022/06/17 04:41:18;;;;;;;;;;;;;;;25.65;57.86;100067.25;2079161;28;20429;-66
2022/06/17 04:42:22;;;;;;;;;;;;;;;25.64;57.95;100074.66;2077774;28;19955;-65
2022/06/17 04:43:35;;;;;;;;;;;;;;;25.64;57.68;100074.66;2077625;28;20080;-66
2022/06/17 04:44:35;;;;;;;;;;;;;;;25.65;57.97;100070.84;2079406;28;20130;-66
2022/06/17 04:45:35;;;;;;;;;;;;;;;25.65;57.65;100076.38;2076591;28;20393;-66
2022/06/17 04:46:39;;;;;;;;;;;;;;;25.65;57.75;100075.53;2077570;28;20686;-66
2022/06/17 04:47:40;;;;;;;;;;;;;;;25.64;57.99;100073.78;2079130;28;19989;-66
2022/06/17 04:48:40;;;;;;;;;;;;;;;25.64;57.92;100080.16;2076037;28;19912;-66
2022/06/17 04:49:43;;;;;;;;;;;;;;;25.64;57.69;100076.56;2078395;28;19967;-66
2022/06/17 04:50:43;;;;;;;;;;;;;;;25.64;57.73;100077.41;2077350;28;20000;-66
2022/06/17 04:51:44;;;;;;;;;;;;;;;25.64;57.80;100077.41;2077954;28;19966;-66
2022/06/17 04:52:48;;;;;;;;;;;;;;;25.64;58.05;100077.41;2078784;28;19917;-66
2022/06/17 04:53:48;;;;;;;;;;;;;;;25.64;57.93;100071.88;2077601;28;19956;-66
2022/06/17 04:54:49;;;;;;;;;;;;;;;25.64;57.71;100079.31;2076594;28;19916;-66
2022/06/17 04:55:50;;;;;;;;;;;;;;;25.63;57.66;100075.72;2079000;28;19999;-66
2022/06/17 04:56:50;;;;;;;;;;;;;;;25.63;57.99;100078.47;2076988;28;19916;-66
2022/06/17 04:57:51;;;;;;;;;;;;;;;25.63;57.95;100078.47;2078557;28;19913;-66
2022/06/17 04:58:51;;;;;;;;;;;;;;;25.63;57.76;100072.94;2077568;28;20556;-66
2022/06/17 04:59:52;;;;;;;;;;;;;;;25.64;57.83;100071.03;2076047;28;20355;-66
2022/06/17 05:00:54;;;;;;;;;;;;;;;25.64;57.86;100076.56;2078484;28;20410;-66
2022/06/17 05:01:55;;;;;;;;;;;;;;;25.62;57.99;100076.75;2075623;28;19924;-66
2022/06/17 05:02:55;;;;;;;;;;;;;;;25.63;58.01;100072.94;2078586;28;19913;-66
2022/06/17 05:03:59;;;;;;;;;;;;;;;25.63;57.90;100070.19;2072243;28;19917;-66
2022/06/17 05:05:01;;;;;;;;;;;;;;;25.63;57.75;100074.88;2074229;28;20001;-66
2022/06/17 05:06:01;;;;;;;;;;;;;;;25.63;58.10;100078.47;2077882;28;19987;-66
2022/06/17 05:07:02;;;;;;;;;;;;;;;25.62;57.82;100076.75;2074827;28;19931;-66
2022/06/17 05:08:09;;;;;;;;;;;;;;;25.62;57.76;100073.97;2075227;28;19919;-66
2022/06/17 05:09:13;;;;;;;;;;;;;;;25.62;58.02;100073.97;2071173;28;19917;-66
2022/06/17 05:10:24;;;;;;;;;;;;;;;25.62;57.73;100071.22;2076024;28;19913;-66
2022/06/17 05:11:28;;;;;;;;;;;;;;;25.62;57.84;100070.38;2074776;28;20264;-66
2022/06/17 05:12:31;;;;;;;;;;;;;;;25.62;58.12;100071.22;2071977;28;20283;-66
2022/06/17 05:13:31;;;;;;;;;;;;;;;25.63;57.85;100072.09;2076880;28;19909;-66
2022/06/17 05:14:32;;;;;;;;;;;;;;;25.61;57.88;100064.00;2078055;28;19921;-66
2022/06/17 05:15:32;;;;;;;;;;;;;;;25.62;57.83;100065.69;2075354;28;20424;-66
2022/06/17 05:16:32;;;;;;;;;;;;;;;25.63;57.94;100072.94;2078678;28;19909;-66
2022/06/17 05:17:33;;;;;;;;;;;;;;;25.62;57.91;100070.38;2077617;28;20272;-66
2022/06/17 05:18:33;;;;;;;;;;;;;;;25.61;57.83;100072.28;2076911;28;19919;-66
2022/06/17 05:19:33;;;;;;;;;;;;;;;25.62;57.74;100070.38;2078443;28;19920;-66
2022/06/17 05:20:34;;;;;;;;;;;;;;;25.62;57.80;100073.97;2077102;28;19917;-66
2022/06/17 05:21:34;;;;;;;;;;;;;;;25.63;57.82;100072.94;2077549;28;19923;-65
2022/06/17 05:22:39;;;;;;;;;;;;;;;25.62;57.75;100071.22;2072509;28;19924;-66
2022/06/17 05:23:40;;;;;;;;;;;;;;;25.61;57.80;100077.81;2076539;28;20488;-66
2022/06/17 05:24:40;;;;;;;;;;;;;;;25.61;57.69;100069.53;2072339;28;20389;-64
2022/06/17 05:25:42;;;;;;;;;;;;;;;25.62;57.76;100073.13;2075058;28;20512;-64
2022/06/17 05:26:42;;;;;;;;;;;;;;;25.62;57.74;100076.75;2072390;28;20000;-64
2022/06/17 05:27:42;;;;;;;;;;;;;;;25.61;57.74;100072.28;2076262;28;19920;-64
2022/06/17 05:28:43;;;;;;;;;;;;;;;25.62;57.68;100071.22;2071077;28;20266;-64
2022/06/17 05:29:43;;;;;;;;;;;;;;;25.62;57.68;100071.22;2075614;28;20688;-64
2022/06/17 05:30:46;;;;;;;;;;;;;;;25.62;57.71;100067.59;2074969;28;20821;-64
2022/06/17 05:31:49;;;;;;;;;;;;;;;25.62;57.73;100065.69;2074966;28;20027;-64
2022/06/17 05:32:51;;;;;;;;;;;;;;;25.61;57.66;100064.00;2073137;28;19917;-63